Time;durP1;ratioP1;P1;durP2;ratioP2;P2;SDS_P1;SDS_P2;PMS_P1;PMS_P2;Temp;Humidity;BMP_temperature;BMP_pressure;BME280_temperature;BME280_humidity;BME280_pressure;Samples;Min_cycle;Max_cycle;Signal;HPM_P1;HPM_P2
2022/08/16 00:00:20;;;;;;;11.90;10.53;;;;;;;21.89;76.92;94433.19;5051493;28;20457;-79
2022/08/16 00:02:48;;;;;;;11.60;10.50;;;;;;;21.85;76.68;94431.97;5016538;28;20458;-78
2022/08/16 00:05:15;;;;;;;13.37;11.90;;;;;;;21.88;77.05;94440.38;5051270;28;21058;-79
2022/08/16 00:07:42;;;;;;;12.97;11.30;;;;;;;21.87;77.33;94435.25;5051345;28;20828;-79
2022/08/16 00:10:12;;;;;;;12.10;10.80;;;;;;;21.81;77.84;94439.59;5053512;28;20489;-78
2022/08/16 00:12:40;;;;;;;11.90;10.70;;;;;;;21.71;77.97;94444.56;5055305;28;20445;-79
2022/08/16 00:15:12;;;;;;;13.33;11.97;;;;;;;21.73;78.07;94433.66;5055235;28;20487;-79
2022/08/16 00:17:42;;;;;;;13.67;12.27;;;;;;;21.78;78.32;94433.84;5054911;28;20449;-78
2022/08/16 00:20:10;;;;;;;16.97;11.60;;;;;;;21.88;78.28;94445.72;5055213;28;20803;-78
2022/08/16 00:22:38;;;;;;;14.13;12.20;;;;;;;21.88;78.24;94439.56;5055272;28;20886;-78
2022/08/16 00:25:08;;;;;;;13.03;11.70;;;;;;;21.76;78.80;94441.25;5054882;28;20448;-78
2022/08/16 00:27:35;;;;;;;14.67;12.50;;;;;;;21.74;78.95;94452.16;5055008;28;20446;-79
2022/08/16 00:30:04;;;;;;;17.33;13.77;;;;;;;21.74;79.20;94452.16;5055031;28;20492;-78
2022/08/16 00:32:32;;;;;;;14.93;13.17;;;;;;;21.74;79.41;94456.66;5054501;28;20460;-78
2022/08/16 00:34:59;;;;;;;19.13;12.40;;;;;;;21.78;79.12;94456.03;5054704;28;20449;-78
2022/08/16 00:37:26;;;;;;;16.80;13.23;;;;;;;21.78;79.33;94452.53;5054621;28;20448;-78
2022/08/16 00:39:54;;;;;;;22.63;12.50;;;;;;;21.84;79.26;94462.38;5054746;28;20450;-78
2022/08/16 00:42:21;;;;;;;15.83;11.50;;;;;;;21.85;78.88;94442.66;5054438;28;20468;-78
2022/08/16 00:44:59;;;;;;;14.43;12.37;;;;;;;21.84;79.26;94435.66;5035518;28;20928;-79
2022/08/16 00:47:26;;;;;;;12.90;11.50;;;;;;;21.81;79.36;94438.75;5054548;28;20449;-79
2022/08/16 00:49:55;;;;;;;14.03;12.53;;;;;;;21.80;79.53;94439.78;5054596;28;20485;-79
2022/08/16 00:52:21;;;;;;;20.47;13.90;;;;;;;21.77;79.48;94450.91;5054398;28;20941;-78
2022/08/16 00:54:48;;;;;;;15.93;12.80;;;;;;;21.63;79.38;94442.91;5054550;28;20438;-79
2022/08/16 00:57:15;;;;;;;15.30;13.27;;;;;;;21.64;79.98;94457.06;5054178;28;20452;-78
2022/08/16 00:59:42;;;;;;;14.20;12.70;;;;;;;21.64;79.96;94457.06;5054106;28;20959;-78
2022/08/16 01:02:10;;;;;;;13.40;12.07;;;;;;;21.64;79.88;94457.91;5054448;28;20454;-78
2022/08/16 01:04:37;;;;;;;13.50;12.20;;;;;;;21.67;80.06;94464.66;5054391;28;20789;-78
2022/08/16 01:07:07;;;;;;;15.13;13.57;;;;;;;21.68;80.08;94455.63;5054159;28;20449;-79
2022/08/16 01:09:39;;;;;;;14.83;13.00;;;;;;;21.72;79.55;94464.06;5054135;28;20492;-79
2022/08/16 01:12:10;;;;;;;13.50;12.10;;;;;;;21.72;79.04;94461.41;5053707;28;20441;-78
2022/08/16 01:14:42;;;;;;;14.23;12.60;;;;;;;21.77;78.80;94466.94;5053969;28;20632;-78
2022/08/16 01:17:12;;;;;;;13.77;11.87;;;;;;;21.75;78.69;94467.13;5053713;28;20450;-79
2022/08/16 01:19:44;;;;;;;15.77;12.30;;;;;;;21.75;78.77;94472.47;5018357;28;20526;-79
2022/08/16 01:22:18;;;;;;;15.10;12.47;;;;;;;21.73;78.86;94463.03;5053644;28;20442;-78
2022/08/16 01:24:50;;;;;;;13.83;11.97;;;;;;;21.74;79.11;94480.69;5053699;28;20944;-78
2022/08/16 01:27:21;;;;;;;19.50;13.00;;;;;;;21.73;79.07;94487.06;5053966;28;20493;-78
2022/08/16 01:29:55;;;;;;;13.47;11.83;;;;;;;21.73;79.21;94479.06;5053697;28;20880;-79
2022/08/16 01:32:22;;;;;;;14.20;12.57;;;;;;;21.68;79.08;94482.34;5053733;28;20882;-79
2022/08/16 01:34:49;;;;;;;15.30;11.80;;;;;;;21.58;79.20;94485.44;5053831;28;20430;-79
2022/08/16 01:37:16;;;;;;;14.73;11.90;;;;;;;21.58;79.25;94485.44;5053899;28;20449;-78
2022/08/16 01:39:43;;;;;;;14.50;11.77;;;;;;;21.64;78.99;94484.59;5053707;28;20456;-78
2022/08/16 01:42:11;;;;;;;16.03;12.97;;;;;;;21.60;79.35;94491.38;5053475;28;20460;-79
2022/08/16 01:44:39;;;;;;;12.60;11.30;;;;;;;21.50;79.52;94483.00;5053298;28;20484;-79
2022/08/16 01:47:07;;;;;;;14.10;12.53;;;;;;;21.48;79.62;94484.22;5053196;28;20454;-79
2022/08/16 01:49:35;;;;;;;13.10;11.77;;;;;;;21.48;79.37;94487.72;5053351;28;20485;-79
2022/08/16 01:52:05;;;;;;;14.20;12.30;;;;;;;21.41;79.86;94488.75;5053053;28;20811;-79
2022/08/16 01:54:33;;;;;;;13.50;11.97;;;;;;;21.40;79.86;94482.59;5053111;28;20819;-79
2022/08/16 01:57:00;;;;;;;16.23;11.10;;;;;;;21.47;79.96;94485.25;5053559;28;20843;-80
2022/08/16 01:59:30;;;;;;;12.93;11.73;;;;;;;21.52;79.47;94488.13;5052959;28;20456;-79
2022/08/16 02:01:57;;;;;;;13.00;11.50;;;;;;;21.56;79.09;94484.00;5052999;28;20449;-79
2022/08/16 02:04:25;;;;;;;14.80;11.27;;;;;;;21.62;78.90;94496.53;5018210;28;20863;-78
2022/08/16 02:06:52;;;;;;;12.50;11.20;;;;;;;21.65;79.13;94486.25;5052925;28;20484;-79
2022/08/16 02:09:21;;;;;;;12.70;11.27;;;;;;;21.69;79.04;94481.34;5053068;28;20490;-78
2022/08/16 02:11:53;;;;;;;13.50;12.10;;;;;;;21.71;78.90;94489.13;5053062;28;20453;-79
2022/08/16 02:14:21;;;;;;;22.20;11.37;;;;;;;21.62;79.39;94489.34;5052631;28;20456;-78
2022/08/16 02:16:50;;;;;;;13.63;11.83;;;;;;;21.61;79.00;94500.22;5053020;28;20507;-79
2022/08/16 02:19:18;;;;;;;12.93;11.63;;;;;;;21.57;79.16;94504.34;5052571;28;20532;-77
2022/08/16 02:21:50;;;;;;;19.30;13.00;;;;;;;21.55;79.22;94512.56;5052889;28;20442;-79
2022/08/16 02:24:18;;;;;;;14.60;11.57;;;;;;;21.54;79.15;94508.25;5052853;28;20446;-78
2022/08/16 02:26:45;;;;;;;16.80;11.13;;;;;;;21.58;78.97;94514.81;5052590;28;20446;-77
2022/08/16 02:29:12;;;;;;;16.20;12.57;;;;;;;21.59;79.07;94545.00;5052461;28;20453;-79
2022/08/16 02:31:40;;;;;;;12.10;10.90;;;;;;;21.57;79.19;94553.22;5051938;28;20478;-78
2022/08/16 02:34:08;;;;;;;14.53;11.80;;;;;;;21.55;78.79;94567.81;5052162;28;20452;-77
2022/08/16 02:36:35;;;;;;;12.77;11.07;;;;;;;21.59;78.55;94577.88;5052480;28;20507;-78
2022/08/16 02:39:02;;;;;;;13.03;11.73;;;;;;;21.61;78.48;94575.81;5052378;28;20441;-77
2022/08/16 02:41:29;;;;;;;12.87;11.57;;;;;;;21.65;78.49;94566.34;5052328;28;20441;-78
2022/08/16 02:43:57;;;;;;;12.63;11.33;;;;;;;21.74;78.48;94579.53;5052429;28;20457;-78
2022/08/16 02:46:24;;;;;;;14.73;12.73;;;;;;;21.83;78.77;94572.94;5052165;28;20438;-78
2022/08/16 02:48:50;;;;;;;13.40;11.10;;;;;;;21.87;78.52;94574.16;5052550;28;20461;-79
2022/08/16 02:51:19;;;;;;;14.77;11.37;;;;;;;21.88;78.26;94573.13;5033396;28;20528;-78
2022/08/16 02:53:48;;;;;;;12.80;11.30;;;;;;;21.59;79.61;94561.84;5017329;28;20449;-78
2022/08/16 02:56:17;;;;;;;13.50;12.27;;;;;;;21.41;80.85;94569.66;5052162;28;20450;-78
2022/08/16 02:58:45;;;;;;;16.60;12.83;;;;;;;21.38;81.53;94559.38;5052164;28;20543;-78
2022/08/16 03:01:13;;;;;;;15.33;11.67;;;;;;;21.45;81.59;94556.72;5052234;28;20453;-78
2022/08/16 03:03:40;;;;;;;14.37;12.80;;;;;;;21.52;81.54;94545.00;5051893;28;20846;-78
2022/08/16 03:06:07;;;;;;;16.50;12.87;;;;;;;21.62;81.34;94553.41;5052271;28;20448;-78
2022/08/16 03:08:35;;;;;;;15.33;13.73;;;;;;;21.71;81.12;94547.91;5052292;28;20524;-79
2022/08/16 03:11:05;;;;;;;14.83;12.60;;;;;;;21.76;81.12;94545.41;5052105;28;20488;-78
2022/08/16 03:13:32;;;;;;;14.00;12.20;;;;;;;21.80;81.08;94542.13;5052080;28;20495;-79
2022/08/16 03:15:59;;;;;;;15.60;12.87;;;;;;;21.86;80.80;94535.94;5051857;28;20449;-77
2022/08/16 03:18:25;;;;;;;14.73;12.50;;;;;;;21.86;80.37;94532.44;5051978;28;20491;-79
2022/08/16 03:20:52;;;;;;;16.80;12.73;;;;;;;21.90;80.00;94531.81;5051973;28;20454;-79
2022/08/16 03:23:19;;;;;;;15.33;12.47;;;;;;;21.85;79.70;94523.63;5051734;28;20453;-77
2022/08/16 03:25:47;;;;;;;15.33;13.73;;;;;;;21.76;80.20;94524.88;5051838;28;20441;-78
2022/08/16 03:28:14;;;;;;;13.73;12.23;;;;;;;21.71;80.07;94538.03;5051820;28;20986;-78
2022/08/16 03:30:41;;;;;;;15.20;13.20;;;;;;;21.60;80.74;94530.63;5051784;28;20485;-79
2022/08/16 03:33:08;;;;;;;15.97;13.60;;;;;;;21.59;80.66;94532.47;5052175;28;20445;-78
2022/08/16 03:35:38;;;;;;;13.23;11.90;;;;;;;21.56;81.02;94519.53;5051816;28;20445;-78
2022/08/16 03:38:09;;;;;;;15.43;13.57;;;;;;;21.51;81.20;94524.69;5051452;28;20865;-79
2022/08/16 03:40:37;;;;;;;13.90;12.40;;;;;;;21.47;80.80;94527.97;5052114;28;20449;-79
2022/08/16 03:43:08;;;;;;;13.87;12.43;;;;;;;21.44;81.25;94531.06;5052129;28;20469;-79
2022/08/16 03:45:36;;;;;;;19.20;14.50;;;;;;;21.38;81.83;94524.66;5020378;28;20437;-78
2022/08/16 03:48:05;;;;;;;14.77;13.27;;;;;;;21.40;81.64;94533.31;5055563;28;20453;-79
2022/08/16 03:50:32;;;;;;;16.27;12.77;;;;;;;21.39;81.72;94533.50;5055675;28;20493;-78
2022/08/16 03:52:59;;;;;;;14.93;13.33;;;;;;;21.40;81.31;94533.31;5055491;28;20452;-79
2022/08/16 03:55:26;;;;;;;14.83;13.33;;;;;;;21.46;81.59;94523.66;5055583;28;20450;-78
2022/08/16 03:57:54;;;;;;;13.93;11.70;;;;;;;21.52;81.43;94523.66;5055444;28;20481;-78
2022/08/16 04:00:25;;;;;;;15.23;13.63;;;;;;;21.60;81.01;94525.28;5036431;28;20437;-79
2022/08/16 04:02:55;;;;;;;14.90;13.03;;;;;;;21.64;80.98;94516.66;5055299;28;20932;-78
2022/08/16 04:05:22;;;;;;;15.27;13.53;;;;;;;21.73;80.64;94521.78;5055449;28;20799;-77
2022/08/16 04:07:48;;;;;;;15.63;12.37;;;;;;;21.77;80.29;94534.53;5055364;28;20456;-79
2022/08/16 04:10:16;;;;;;;16.60;13.80;;;;;;;21.74;80.36;94531.44;5020080;28;20481;-78
2022/08/16 04:12:45;;;;;;;15.63;13.50;;;;;;;21.68;80.53;94516.22;5019692;28;20802;-78
2022/08/16 04:15:15;;;;;;;13.23;11.80;;;;;;;21.76;80.45;94524.06;5055478;28;20463;-79
2022/08/16 04:17:43;;;;;;;15.00;13.20;;;;;;;21.77;80.41;94528.38;5054853;28;20468;-78
2022/08/16 04:20:12;;;;;;;14.20;12.70;;;;;;;21.73;79.93;94509.25;5055075;28;20457;-80
2022/08/16 04:22:41;;;;;;;18.10;12.00;;;;;;;21.89;79.94;94524.00;5055294;28;20449;-79
2022/08/16 04:25:08;;;;;;;14.57;13.07;;;;;;;22.17;79.35;94526.44;5054880;28;20470;-79
2022/08/16 04:27:35;;;;;;;13.70;11.37;;;;;;;22.50;77.35;94518.31;5055053;28;20912;-79
2022/08/16 04:30:04;;;;;;;14.10;12.80;;;;;;;22.81;76.13;94523.75;5054814;28;20485;-79
2022/08/16 04:32:32;;;;;;;14.20;11.00;;;;;;;22.82;75.30;94525.38;5054917;28;20445;-79
2022/08/16 04:35:00;;;;;;;14.63;13.03;;;;;;;22.72;75.41;94533.03;5055009;28;20625;-79
2022/08/16 04:37:27;;;;;;;13.67;12.27;;;;;;;22.68;75.36;94529.13;5054684;28;20442;-79
2022/08/16 04:39:53;;;;;;;16.67;11.50;;;;;;;22.59;76.15;94526.94;5054664;28;20466;-80
2022/08/16 04:42:20;;;;;;;15.20;12.57;;;;;;;22.57;76.55;94532.50;5019332;28;20461;-78
2022/08/16 04:44:48;;;;;;;13.73;12.10;;;;;;;22.58;76.78;94528.78;5054665;28;20442;-78
2022/08/16 04:47:15;;;;;;;15.80;12.63;;;;;;;22.69;78.10;94524.59;5054513;28;20456;-79
2022/08/16 04:49:43;;;;;;;13.63;12.23;;;;;;;23.03;76.94;94526.09;5054548;28;20520;-79
2022/08/16 04:52:11;;;;;;;17.60;13.87;;;;;;;23.05;77.38;94521.34;5054340;28;20488;-79
2022/08/16 04:54:39;;;;;;;15.77;14.17;;;;;;;22.98;76.11;94507.19;5053940;28;20437;-79
2022/08/16 04:57:06;;;;;;;18.70;14.47;;;;;;;22.38;77.92;94501.28;5019303;28;20442;-79
2022/08/16 04:59:33;;;;;;;16.80;14.23;;;;;;;21.82;81.36;94512.53;5054614;28;20514;-79
2022/08/16 05:01:59;;;;;;;17.57;13.80;;;;;;;21.96;81.60;94511.47;5019075;28;20454;-78
2022/08/16 05:04:26;;;;;;;19.90;14.70;;;;;;;22.20;80.84;94516.16;5018886;28;20849;-80
2022/08/16 05:06:53;;;;;;;17.63;15.83;;;;;;;22.30;80.86;94525.59;5054150;28;20445;-78
2022/08/16 05:09:21;;;;;;;18.40;15.60;;;;;;;22.29;80.49;94546.16;5053884;28;20445;-79
2022/08/16 05:11:48;;;;;;;17.77;14.87;;;;;;;22.45;79.75;94539.53;5053974;28;20492;-78
2022/08/16 05:14:15;;;;;;;16.70;14.93;;;;;;;22.94;79.26;94556.81;5054139;28;20810;-79
2022/08/16 05:16:43;;;;;;;19.60;16.30;;;;;;;23.47;76.71;94552.78;5018847;28;20453;-80
2022/08/16 05:19:10;;;;;;;17.13;15.33;;;;;;;23.93;74.97;94554.25;5054029;28;20446;-79
2022/08/16 05:21:37;;;;;;;25.83;15.90;;;;;;;24.48;72.13;94556.22;5053758;28;20461;-79
2022/08/16 05:24:05;;;;;;;21.87;14.80;;;;;;;24.81;70.02;94556.63;5053682;28;20449;-79
2022/08/16 05:26:35;;;;;;;14.80;13.30;;;;;;;25.16;69.47;94559.53;5053929;28;20453;-80
2022/08/16 05:29:02;;;;;;;17.93;13.87;;;;;;;25.63;67.61;94567.69;5053923;28;20441;-78
2022/08/16 05:31:29;;;;;;;15.30;12.73;;;;;;;25.98;66.64;94573.13;5053493;28;20486;-80
2022/08/16 05:33:56;;;;;;;17.30;14.00;;;;;;;26.35;65.27;94573.78;5053424;28;20872;-79
2022/08/16 05:36:23;;;;;;;15.37;13.77;;;;;;;26.50;63.75;94560.63;5018357;28;20441;-79
2022/08/16 05:38:50;;;;;;;19.47;14.30;;;;;;;26.25;64.09;94558.16;5053465;28;20958;-78
2022/08/16 05:41:17;;;;;;;16.33;14.17;;;;;;;26.09;64.87;94556.19;5053668;28;20527;-79
2022/08/16 05:43:45;;;;;;;17.30;14.37;;;;;;;26.20;64.59;94543.78;5053711;28;20442;-79
2022/08/16 05:46:16;;;;;;;29.00;14.93;;;;;;;26.29;64.50;94547.75;5053464;28;20781;-79
2022/08/16 05:48:43;;;;;;;15.00;13.60;;;;;;;26.57;64.16;94554.28;5053397;28;20454;-79
2022/08/16 05:51:10;;;;;;;16.43;14.23;;;;;;;26.96;63.22;94564.28;5017911;28;20480;-79
2022/08/16 05:53:37;;;;;;;15.53;12.87;;;;;;;27.30;61.73;94559.03;5053224;28;20444;-78
2022/08/16 05:56:04;;;;;;;14.97;13.57;;;;;;;27.53;61.21;94558.09;5053593;28;20472;-78
2022/08/16 05:58:31;;;;;;;15.73;13.33;;;;;;;27.50;60.40;94548.63;5052995;28;20482;-79
2022/08/16 06:00:59;;;;;;;15.80;14.20;;;;;;;27.36;59.96;94550.78;5018102;28;20446;-78
2022/08/16 06:03:26;;;;;;;18.60;14.40;;;;;;;27.30;60.33;94553.63;5053042;28;20442;-79
2022/08/16 06:05:52;;;;;;;13.83;12.43;;;;;;;27.58;60.45;94548.22;5052892;28;20450;-79
2022/08/16 06:08:19;;;;;;;13.43;12.13;;;;;;;27.72;59.18;94552.25;5017793;28;20441;-79
2022/08/16 06:10:46;;;;;;;15.27;13.67;;;;;;;28.02;59.09;94549.22;5052765;28;20488;-80
2022/08/16 06:13:13;;;;;;;13.20;11.90;;;;;;;28.31;57.48;94552.63;5052991;28;20430;-80
2022/08/16 06:15:40;;;;;;;14.60;12.30;;;;;;;28.28;56.62;94552.31;5053012;28;20503;-79
2022/08/16 06:18:08;;;;;;;15.40;13.90;;;;;;;28.38;57.90;94553.31;5052579;28;20449;-79
2022/08/16 06:20:35;;;;;;;14.33;11.63;;;;;;;28.62;57.23;94550.34;5052690;28;20933;-78
2022/08/16 06:23:02;;;;;;;14.13;12.73;;;;;;;28.72;56.24;94547.81;5052772;28;20449;-79
2022/08/16 06:25:29;;;;;;;16.20;13.33;;;;;;;29.08;55.72;94548.25;5052996;28;20450;-79
2022/08/16 06:27:55;;;;;;;16.43;14.73;;;;;;;29.38;54.08;94537.75;5052686;28;20469;-79
2022/08/16 06:30:22;;;;;;;12.47;10.97;;;;;;;29.60;54.14;94543.97;5052283;28;21010;-79
2022/08/16 06:32:49;;;;;;;15.23;12.70;;;;;;;29.01;54.80;94547.63;5052293;28;20469;-79
2022/08/16 06:35:17;;;;;;;13.73;12.43;;;;;;;29.16;54.51;94540.50;5052193;28;20441;-79
2022/08/16 06:37:44;;;;;;;13.60;12.30;;;;;;;29.18;55.07;94540.25;5052291;28;20787;-80
2022/08/16 06:40:12;;;;;;;14.40;12.53;;;;;;;29.23;54.62;94532.22;5052750;28;20460;-78
2022/08/16 06:42:39;;;;;;;14.57;10.70;;;;;;;29.12;55.11;94533.16;5016959;28;20840;-79
2022/08/16 06:45:07;;;;;;;12.70;11.23;;;;;;;29.43;55.25;94532.41;5052335;28;20515;-79
2022/08/16 06:47:34;;;;;;;16.43;14.53;;;;;;;29.72;53.84;94538.38;5052749;28;20446;-79
2022/08/16 06:50:01;;;;;;;14.13;12.93;;;;;;;30.06;53.29;94533.53;5033494;28;20945;-80
2022/08/16 06:52:35;;;;;;;12.40;11.20;;;;;;;29.89;52.66;94532.84;5052267;28;20481;-79
2022/08/16 06:55:03;;;;;;;12.80;11.50;;;;;;;30.31;52.48;94529.38;5052490;28;20655;-78
2022/08/16 06:57:30;;;;;;;12.87;11.57;;;;;;;30.12;50.94;94527.09;5050888;28;20453;-80
2022/08/16 06:59:57;;;;;;;13.70;11.57;;;;;;;30.20;52.11;94529.31;5051933;28;20441;-79
2022/08/16 07:02:24;;;;;;;11.77;10.57;;;;;;;30.13;52.19;94517.91;5051788;28;20445;-79
2022/08/16 07:04:51;;;;;;;17.77;11.60;;;;;;;30.18;51.82;94514.41;5051979;28;20450;-80
2022/08/16 07:07:19;;;;;;;11.60;10.60;;;;;;;30.00;51.40;94512.88;5052032;28;20825;-80
2022/08/16 07:09:48;;;;;;;12.47;10.87;;;;;;;30.16;52.07;94505.75;5052145;28;20446;-79
2022/08/16 07:12:16;;;;;;;12.77;11.37;;;;;;;30.18;51.44;94514.41;5051949;28;20581;-79
2022/08/16 07:14:43;;;;;;;12.00;10.80;;;;;;;30.01;52.07;94519.13;5051666;28;20917;-80
2022/08/16 07:17:10;;;;;;;22.17;11.53;;;;;;;30.07;52.87;94513.53;5052194;28;20445;-80
2022/08/16 07:19:39;;;;;;;12.60;11.30;;;;;;;30.21;51.17;94503.06;5051601;28;20988;-79
2022/08/16 07:22:06;;;;;;;15.80;11.30;;;;;;;30.25;52.11;94506.06;5051465;28;20464;-80
2022/08/16 07:24:32;;;;;;;11.27;10.27;;;;;;;30.53;50.54;94497.53;5051804;28;20449;-80
2022/08/16 07:27:01;;;;;;;12.50;11.00;;;;;;;30.68;50.40;94492.25;5051505;28;20978;-80
2022/08/16 07:29:29;;;;;;;11.90;10.70;;;;;;;30.75;51.47;94487.38;5051939;28;20468;-79
2022/08/16 07:31:56;;;;;;;12.57;11.43;;;;;;;30.85;51.09;94489.31;5033016;28;20485;-79
2022/08/16 07:34:23;;;;;;;13.67;11.80;;;;;;;30.97;50.33;94491.78;5051620;28;20457;-80
2022/08/16 07:36:50;;;;;;;13.50;12.10;;;;;;;30.79;51.10;94493.91;5016906;28;20538;-80
2022/08/16 07:39:18;;;;;;;13.87;12.43;;;;;;;30.44;51.95;94486.41;5051801;28;20454;-79
2022/08/16 07:41:45;;;;;;;11.20;10.10;;;;;;;30.46;52.29;94494.25;5051798;28;20449;-78
2022/08/16 07:44:13;;;;;;;12.90;11.70;;;;;;;30.70;51.86;94492.78;5051973;28;20674;-79
2022/08/16 07:46:40;;;;;;;12.70;11.30;;;;;;;30.80;51.86;94490.09;5051763;28;20828;-79
2022/08/16 07:49:07;;;;;;;11.70;10.50;;;;;;;30.63;50.30;94492.19;5051591;28;20936;-80
2022/08/16 07:51:36;;;;;;;12.03;10.90;;;;;;;30.62;50.25;94490.56;5051729;28;20504;-79
2022/08/16 07:54:05;;;;;;;14.67;11.70;;;;;;;30.59;52.17;94482.94;5051584;28;20799;-79
2022/08/16 07:56:32;;;;;;;14.23;11.70;;;;;;;30.39;51.97;94496.41;5051641;28;20482;-80
2022/08/16 07:59:00;;;;;;;13.27;11.97;;;;;;;30.05;52.50;94491.31;5051584;28;20478;-79
2022/08/16 08:01:28;;;;;;;12.93;11.20;;;;;;;29.84;52.41;94494.94;5051474;28;20460;-79
2022/08/16 08:03:56;;;;;;;12.73;11.43;;;;;;;29.89;51.77;94497.66;5051572;28;20476;-79
2022/08/16 08:06:27;;;;;;;12.83;10.83;;;;;;;30.13;52.40;94495.44;5032678;28;20487;-79
2022/08/16 08:08:54;;;;;;;14.93;11.00;;;;;;;30.25;51.59;94503.34;5051697;28;20440;-80
2022/08/16 08:11:21;;;;;;;14.70;10.80;;;;;;;30.30;50.11;94496.06;5051553;28;20485;-79
2022/08/16 08:13:48;;;;;;;13.90;12.40;;;;;;;30.43;50.18;94503.72;5051279;28;20808;-80
2022/08/16 08:16:15;;;;;;;16.93;11.30;;;;;;;30.52;50.35;94502.16;5051715;28;20442;-80
2022/08/16 08:18:44;;;;;;;11.70;10.60;;;;;;;30.60;49.00;94510.84;5051515;28;20453;-80
2022/08/16 08:21:11;;;;;;;15.00;10.77;;;;;;;30.60;49.28;94511.69;5051010;28;20441;-79
2022/08/16 08:23:37;;;;;;;13.13;11.10;;;;;;;30.64;50.09;94511.97;5051423;28;20457;-79
2022/08/16 08:26:05;;;;;;;16.60;10.93;;;;;;;30.53;49.80;94509.19;5051332;28;20442;-79
2022/08/16 08:29:08;;;;;;;;;;;;;;;;;;;;;
2022/08/16 08:35:42;;;;;;;15.93;11.43;;;;;;;30.66;50.75;94507.94;4897038;29;20521;-80
2022/08/16 08:38:09;;;;;;;20.40;12.73;;;;;;;30.66;50.95;94512.53;4897557;29;20459;-80
2022/08/16 08:40:36;;;;;;;17.07;11.47;;;;;;;30.60;49.79;94521.66;4897467;29;20457;-78
2022/08/16 08:43:03;;;;;;;15.03;11.50;;;;;;;30.73;51.31;94500.38;4897157;29;20476;-79
2022/08/16 08:45:30;;;;;;;17.07;11.40;;;;;;;30.98;51.53;94504.25;4897303;29;20468;-79
2022/08/16 08:47:57;;;;;;;14.23;11.13;;;;;;;31.24;49.98;94511.41;4865961;29;20448;-79
2022/08/16 08:50:26;;;;;;;20.00;12.33;;;;;;;31.38;49.51;94512.50;4896769;29;20448;-79
2022/08/16 08:52:54;;;;;;;14.50;11.20;;;;;;;31.50;48.25;94508.72;4934912;29;20522;-79
2022/08/16 08:55:22;;;;;;;19.57;12.37;;;;;;;31.53;47.35;94506.31;4918884;29;20463;-79
2022/08/16 08:57:51;;;;;;;11.83;10.40;;;;;;;31.55;48.12;94504.16;4936830;28;20571;-80
2022/08/16 09:00:21;;;;;;;13.67;10.30;;;;;;;31.60;48.60;94500.63;5054474;28;20445;-80
2022/08/16 09:02:49;;;;;;;12.53;11.10;;;;;;;31.61;47.80;94502.25;5054097;28;20445;-78
2022/08/16 09:05:17;;;;;;;12.40;10.57;;;;;;;31.62;48.18;94496.53;5054432;28;20449;-79
2022/08/16 09:07:47;;;;;;;12.10;10.80;;;;;;;31.77;47.60;94501.19;5054006;28;20503;-80
2022/08/16 09:10:14;;;;;;;12.43;9.63;;;;;;;31.79;45.89;94490.84;5054256;28;20446;-80
2022/08/16 09:12:41;;;;;;;11.53;10.43;;;;;;;31.52;47.54;94482.16;5035423;28;20567;-78
2022/08/16 09:15:10;;;;;;;12.60;10.73;;;;;;;31.31;48.75;94482.13;5054197;28;20445;-79
2022/08/16 09:17:38;;;;;;;11.93;10.83;;;;;;;31.28;48.06;94496.25;5053986;28;20928;-80
2022/08/16 09:20:07;;;;;;;10.70;9.70;;;;;;;31.31;48.09;94498.41;5053818;28;20480;-79
2022/08/16 09:22:34;;;;;;;11.43;9.73;;;;;;;31.15;49.18;94502.13;5018977;28;20492;-79
2022/08/16 09:25:03;;;;;;;11.23;10.17;;;;;;;31.20;48.89;94494.03;5053931;28;20456;-79
2022/08/16 09:27:30;;;;;;;12.80;10.80;;;;;;;31.31;48.60;94498.41;5053678;28;20450;-80
2022/08/16 09:29:57;;;;;;;10.13;9.13;;;;;;;31.19;46.40;94488.88;5053486;28;20940;-80
2022/08/16 09:32:24;;;;;;;11.03;9.10;;;;;;;31.20;47.21;94493.22;5053508;28;20562;-79
2022/08/16 09:34:50;;;;;;;8.87;7.97;;;;;;;31.33;47.15;94479.97;5053674;28;20450;-80
2022/08/16 09:37:17;;;;;;;11.67;9.07;;;;;;;31.18;45.93;94490.78;5053769;28;20453;-79
2022/08/16 09:39:44;;;;;;;14.63;10.43;;;;;;;31.16;45.50;94486.69;5053524;28;20445;-80
2022/08/16 09:42:14;;;;;;;13.30;9.53;;;;;;;31.14;45.51;94479.63;5053220;28;20460;-80
2022/08/16 09:44:41;;;;;;;8.93;8.13;;;;;;;31.12;44.98;94483.69;5053224;28;20528;-79
2022/08/16 09:47:08;;;;;;;10.07;9.17;;;;;;;30.99;43.72;94476.09;5053008;28;20453;-79
2022/08/16 09:49:35;;;;;;;10.20;7.43;;;;;;;30.94;43.28;94476.03;5053813;28;20522;-80
2022/08/16 09:52:03;;;;;;;8.60;7.80;;;;;;;30.94;43.94;94479.59;5053422;28;20485;-79
2022/08/16 09:54:30;;;;;;;9.57;8.67;;;;;;;31.06;45.02;94482.06;5053218;28;20515;-80
2022/08/16 09:56:57;;;;;;;9.77;8.67;;;;;;;30.99;45.03;94470.66;5052982;28;20452;-78
2022/08/16 09:59:25;;;;;;;16.37;8.87;;;;;;;31.08;43.61;94474.47;5052887;28;20547;-79
2022/08/16 10:01:53;;;;;;;15.97;7.60;;;;;;;31.09;42.62;94465.25;5053393;28;20446;-80
2022/08/16 10:04:21;;;;;;;9.37;8.40;;;;;;;31.02;42.23;94472.84;5053028;28;20445;-80
2022/08/16 10:06:48;;;;;;;9.13;8.23;;;;;;;31.02;41.99;94467.41;5018233;28;20461;-80
2022/08/16 10:09:15;;;;;;;7.67;7.00;;;;;;;30.83;41.95;94470.59;5052876;28;20816;-80
2022/08/16 10:14:29;;;;;;;8.43;7.43;;;;;;;30.98;42.46;94463.63;5052822;28;20979;-79
2022/08/16 10:16:57;;;;;;;7.63;6.93;;;;;;;31.02;43.95;94462.00;5052935;28;20515;-80
2022/08/16 10:19:24;;;;;;;9.97;7.70;;;;;;;31.03;41.82;94469.03;5052957;28;20536;-79
2022/08/16 10:21:52;;;;;;;20.67;7.70;;;;;;;30.98;42.84;94460.91;5052680;28;20963;-79
2022/08/16 10:24:19;;;;;;;8.80;7.87;;;;;;;31.03;43.01;94461.72;5033848;28;20426;-80
2022/08/16 10:26:46;;;;;;;8.77;7.97;;;;;;;30.98;43.88;94463.63;5052620;28;20446;-80
2022/08/16 10:29:14;;;;;;;12.30;8.13;;;;;;;30.90;43.23;94458.69;5052680;28;20454;-78
2022/08/16 10:31:42;;;;;;;9.93;7.70;;;;;;;30.80;40.98;94460.28;5052482;28;20964;-79
2022/08/16 10:34:09;;;;;;;17.37;7.17;;;;;;;30.75;38.26;94456.75;5052313;28;20446;-80
2022/08/16 10:36:36;;;;;;;8.33;5.77;;;;;;;30.82;38.47;94463.56;5052412;28;20959;-80
2022/08/16 10:39:03;;;;;;;8.23;7.40;;;;;;;30.76;42.78;94458.41;5052224;28;20450;-80
2022/08/16 10:41:30;;;;;;;8.03;7.07;;;;;;;30.56;42.60;94456.38;5052598;28;20457;-80
2022/08/16 10:43:58;;;;;;;7.30;6.60;;;;;;;30.44;43.26;94453.09;5052601;28;20806;-80
2022/08/16 10:46:25;;;;;;;11.23;6.90;;;;;;;30.44;41.07;94459.31;5052209;28;20464;-79
2022/08/16 10:48:53;;;;;;;18.10;7.53;;;;;;;30.46;38.69;94467.19;5052617;28;20457;-79
2022/08/16 10:51:20;;;;;;;11.37;8.10;;;;;;;30.55;39.00;94454.75;5052274;28;20445;-79
2022/08/16 10:53:47;;;;;;;8.13;7.40;;;;;;;30.57;38.62;94458.00;5051447;28;20984;-79
2022/08/16 10:56:14;;;;;;;8.63;7.23;;;;;;;30.69;38.86;94460.53;5052572;28;20442;-79
2022/08/16 10:58:41;;;;;;;11.63;7.23;;;;;;;30.71;38.84;94459.19;5051913;28;20473;-79
2022/08/16 11:01:10;;;;;;;10.30;6.70;;;;;;;30.81;39.04;94448.38;5052174;28;20448;-80
2022/08/16 11:03:37;;;;;;;9.53;7.13;;;;;;;30.93;39.29;94458.16;5052019;28;20476;-79
2022/08/16 11:06:07;;;;;;;7.30;6.70;;;;;;;30.90;41.34;94450.56;5052077;28;20843;-80
2022/08/16 11:08:36;;;;;;;7.37;6.77;;;;;;;30.64;42.85;94458.59;5052009;28;20817;-79
2022/08/16 11:11:04;;;;;;;9.10;6.80;;;;;;;30.42;41.43;94452.53;5052411;28;20437;-80
2022/08/16 11:13:31;;;;;;;8.93;8.13;;;;;;;30.43;42.09;94460.41;5052011;28;20496;-80
2022/08/16 11:15:59;;;;;;;7.90;7.20;;;;;;;30.50;42.11;94462.88;5052218;28;20453;-79
2022/08/16 11:18:28;;;;;;;8.40;7.60;;;;;;;30.53;42.63;94462.34;5016658;28;20449;-79
2022/08/16 11:20:57;;;;;;;8.63;7.37;;;;;;;30.59;41.78;94461.28;5052281;28;20476;-79
2022/08/16 11:23:26;;;;;;;7.70;6.80;;;;;;;30.66;39.55;94450.25;5051857;28;20450;-78
2022/08/16 11:25:55;;;;;;;6.67;6.10;;;;;;;30.58;40.11;94439.88;5051763;28;20533;-79
2022/08/16 11:28:22;;;;;;;8.23;6.50;;;;;;;30.66;40.15;94439.41;5051698;28;20445;-80
2022/08/16 11:30:49;;;;;;;7.30;6.70;;;;;;;30.71;41.45;94442.13;5051851;28;20446;-79